sensor_id;sensor_type;location;lat;lon;timestamp;pressure;altitude;pressure_sealevel;temperature;humidity
71194;BME280;58903;47.210;8.618;2023-01-31T00:00:52;95132.22;;;25.63;36.55
71194;BME280;58903;47.210;8.618;2023-01-31T00:03:22;95132.22;;;25.63;37.08
71194;BME280;58903;47.210;8.618;2023-01-31T00:05:48;95123.72;;;25.61;37.36
71194;BME280;58903;47.210;8.618;2023-01-31T00:08:14;95116.19;;;25.62;37.43
71194;BME280;58903;47.210;8.618;2023-01-31T00:10:41;95119.22;;;25.64;36.66
71194;BME280;58903;47.210;8.618;2023-01-31T00:13:17;95120.72;;;25.65;37.01
71194;BME280;58903;47.210;8.618;2023-01-31T00:15:55;95121.22;;;25.63;36.88
71194;BME280;58903;47.210;8.618;2023-01-31T00:18:41;95110.94;;;25.64;37.09
71194;BME280;58903;47.210;8.618;2023-01-31T00:21:21;95112.19;;;25.63;36.72
71194;BME280;58903;47.210;8.618;2023-01-31T00:23:50;95112.19;;;25.63;37.07
71194;BME280;58903;47.210;8.618;2023-01-31T00:26:46;95112.94;;;25.63;36.51
71194;BME280;58903;47.210;8.618;2023-01-31T00:29:32;95104.69;;;25.63;36.36
71194;BME280;58903;47.210;8.618;2023-01-31T00:32:00;95110.19;;;25.63;36.76
71194;BME280;58903;47.210;8.618;2023-01-31T00:34:26;95101.91;;;25.63;36.54
71194;BME280;58903;47.210;8.618;2023-01-31T00:36:52;95103.16;;;25.62;36.52
71194;BME280;58903;47.210;8.618;2023-01-31T00:39:33;95104.41;;;25.61;37.16
71194;BME280;58903;47.210;8.618;2023-01-31T00:42:00;95096.16;;;25.61;36.91
71194;BME280;58903;47.210;8.618;2023-01-31T00:44:27;95094.16;;;25.62;37.21
71194;BME280;58903;47.210;8.618;2023-01-31T00:46:54;95096.41;;;25.63;37.09
71194;BME280;58903;47.210;8.618;2023-01-31T00:49:31;95082.13;;;25.59;36.57
71194;BME280;58903;47.210;8.618;2023-01-31T00:52:21;95085.38;;;25.58;36.89
71194;BME280;58903;47.210;8.618;2023-01-31T00:55:05;95082.84;;;25.54;37.45
71194;BME280;58903;47.210;8.618;2023-01-31T00:57:50;95089.06;;;25.49;36.71
71194;BME280;58903;47.210;8.618;2023-01-31T01:00:26;95084.38;;;25.55;37.54
71194;BME280;58903;47.210;8.618;2023-01-31T01:03:00;95073.34;;;25.55;36.87
71194;BME280;58903;47.210;8.618;2023-01-31T01:05:26;95066.56;;;25.56;37.14
71194;BME280;58903;47.210;8.618;2023-01-31T01:08:27;95058.56;;;25.58;36.54
71194;BME280;58903;47.210;8.618;2023-01-31T01:11:28;95064.84;;;25.59;36.43
71194;BME280;58903;47.210;8.618;2023-01-31T01:14:04;95068.84;;;25.58;37.49
71194;BME280;58903;47.210;8.618;2023-01-31T01:16:43;95065.09;;;25.55;37.25
71194;BME280;58903;47.210;8.618;2023-01-31T01:19:12;95077.13;;;25.58;37.11
71194;BME280;58903;47.210;8.618;2023-01-31T01:21:50;95069.59;;;25.58;36.45
71194;BME280;58903;47.210;8.618;2023-01-31T01:24:18;95074.38;;;25.58;37.52
71194;BME280;58903;47.210;8.618;2023-01-31T01:26:46;95072.34;;;25.58;37.12
71194;BME280;58903;47.210;8.618;2023-01-31T01:29:48;95073.88;;;25.59;37.51
71194;BME280;58903;47.210;8.618;2023-01-31T01:32:23;95072.34;;;25.58;37.40
71194;BME280;58903;47.210;8.618;2023-01-31T01:34:48;95067.84;;;25.61;37.29
71194;BME280;58903;47.210;8.618;2023-01-31T01:37:14;95071.88;;;25.60;37.24
71194;BME280;58903;47.210;8.618;2023-01-31T01:39:51;95076.63;;;25.59;37.33
71194;BME280;58903;47.210;8.618;2023-01-31T01:42:22;95082.13;;;25.59;36.58
71194;BME280;58903;47.210;8.618;2023-01-31T01:48:29;95077.84;;;25.58;37.44
71194;BME280;58903;47.210;8.618;2023-01-31T01:54:16;95066.84;;;25.58;37.41
71194;BME280;58903;47.210;8.618;2023-01-31T01:56:47;95073.59;;;25.57;37.42
71194;BME280;58903;47.210;8.618;2023-01-31T01:59:44;95066.56;;;25.56;36.59
71194;BME280;58903;47.210;8.618;2023-01-31T02:02:30;95064.56;;;25.57;36.75
71194;BME280;58903;47.210;8.618;2023-01-31T02:05:13;95065.34;;;25.57;36.54
71194;BME280;58903;47.210;8.618;2023-01-31T02:07:50;95060.31;;;25.56;36.70
71194;BME280;58903;47.210;8.618;2023-01-31T02:10:44;95066.56;;;25.56;36.81
71194;BME280;58903;47.210;8.618;2023-01-31T02:13:15;95061.06;;;25.56;37.57
71194;BME280;58903;47.210;8.618;2023-01-31T02:16:01;95062.59;;;25.57;37.49
71194;BME280;58903;47.210;8.618;2023-01-31T02:18:28;95060.28;;;25.50;37.53
71194;BME280;58903;47.210;8.618;2023-01-31T02:21:29;95074.06;;;25.50;36.62
71194;BME280;58903;47.210;8.618;2023-01-31T02:24:37;95067.06;;;25.55;36.60
71194;BME280;58903;47.210;8.618;2023-01-31T02:33:15;95064.06;;;25.58;36.77
71194;BME280;58903;47.210;8.618;2023-01-31T02:38:30;95062.09;;;25.59;36.67
71194;BME280;58903;47.210;8.618;2023-01-31T02:50:48;95069.59;;;25.58;37.09
71194;BME280;58903;47.210;8.618;2023-01-31T02:56:50;95071.59;;;25.58;37.49
71194;BME280;58903;47.210;8.618;2023-01-31T02:59:26;95072.59;;;25.55;37.40
71194;BME280;58903;47.210;8.618;2023-01-31T03:02:04;95072.34;;;25.58;37.36
71194;BME280;58903;47.210;8.618;2023-01-31T03:04:32;95081.38;;;25.59;36.87
71194;BME280;58903;47.210;8.618;2023-01-31T03:07:21;95079.38;;;25.59;37.28
71194;BME280;58903;47.210;8.618;2023-01-31T03:10:29;95071.09;;;25.59;37.40
71194;BME280;58903;47.210;8.618;2023-01-31T03:16:16;95069.59;;;25.58;37.01
71194;BME280;58903;47.210;8.618;2023-01-31T03:19:37;95070.34;;;25.59;37.46
71194;BME280;58903;47.210;8.618;2023-01-31T03:22:29;95075.84;;;25.59;37.44
71194;BME280;58903;47.210;8.618;2023-01-31T03:25:01;95069.59;;;25.58;37.16
71194;BME280;58903;47.210;8.618;2023-01-31T03:27:27;95067.59;;;25.59;36.59
71194;BME280;58903;47.210;8.618;2023-01-31T03:30:00;95066.09;;;25.58;37.13
71194;BME280;58903;47.210;8.618;2023-01-31T03:32:35;95076.63;;;25.59;36.53
71194;BME280;58903;47.210;8.618;2023-01-31T03:35:06;95077.38;;;25.60;37.35
71194;BME280;58903;47.210;8.618;2023-01-31T03:37:47;95084.88;;;25.59;37.02
71194;BME280;58903;47.210;8.618;2023-01-31T03:40:25;95089.63;;;25.59;37.44
71194;BME280;58903;47.210;8.618;2023-01-31T03:46:16;95092.38;;;25.59;36.51
71194;BME280;58903;47.210;8.618;2023-01-31T03:49:04;95102.38;;;25.56;37.08
71194;BME280;58903;47.210;8.618;2023-01-31T03:52:02;95102.63;;;25.58;37.58
71194;BME280;58903;47.210;8.618;2023-01-31T03:54:45;95105.13;;;25.56;37.38
71194;BME280;58903;47.210;8.618;2023-01-31T03:57:19;95100.38;;;25.57;37.81
71194;BME280;58903;47.210;8.618;2023-01-31T03:59:51;95100.63;;;25.53;37.49
71194;BME280;58903;47.210;8.618;2023-01-31T04:02:33;95104.38;;;25.56;36.66
71194;BME280;58903;47.210;8.618;2023-01-31T04:05:11;95101.16;;;25.57;36.97
71194;BME280;58903;47.210;8.618;2023-01-31T04:07:41;95109.88;;;25.56;36.99
71194;BME280;58903;47.210;8.618;2023-01-31T04:10:13;95102.38;;;25.56;37.51
71194;BME280;58903;47.210;8.618;2023-01-31T04:12:40;95112.16;;;25.57;36.68
71194;BME280;58903;47.210;8.618;2023-01-31T04:15:07;95105.41;;;25.58;37.05
71194;BME280;58903;47.210;8.618;2023-01-31T04:17:33;95103.41;;;25.59;37.61
71194;BME280;58903;47.210;8.618;2023-01-31T04:20:00;95112.16;;;25.57;37.27
71194;BME280;58903;47.210;8.618;2023-01-31T04:22:35;95113.66;;;25.58;36.80
71194;BME280;58903;47.210;8.618;2023-01-31T04:25:00;95108.66;;;25.57;36.82
71194;BME280;58903;47.210;8.618;2023-01-31T04:27:31;95112.16;;;25.57;37.14
71194;BME280;58903;47.210;8.618;2023-01-31T04:29:57;95114.66;;;25.55;36.66
71194;BME280;58903;47.210;8.618;2023-01-31T04:32:26;95123.19;;;25.57;36.88
71194;BME280;58903;47.210;8.618;2023-01-31T04:34:52;95116.16;;;25.56;36.88
71194;BME280;58903;47.210;8.618;2023-01-31T04:37:18;95119.16;;;25.58;36.82
71194;BME280;58903;47.210;8.618;2023-01-31T04:39:44;95119.66;;;25.57;36.76
71194;BME280;58903;47.210;8.618;2023-01-31T04:42:19;95123.44;;;25.59;37.08
71194;BME280;58903;47.210;8.618;2023-01-31T04:45:17;95119.16;;;25.58;37.52
71194;BME280;58903;47.210;8.618;2023-01-31T04:47:43;95113.66;;;25.58;36.64
71194;BME280;58903;47.210;8.618;2023-01-31T04:50:09;95123.94;;;25.58;37.21
71194;BME280;58903;47.210;8.618;2023-01-31T04:52:35;95122.44;;;25.57;37.31
71194;BME280;58903;47.210;8.618;2023-01-31T04:55:05;95125.19;;;25.57;37.52
71194;BME280;58903;47.210;8.618;2023-01-31T04:57:31;95120.44;;;25.57;36.57
71194;BME280;58903;47.210;8.618;2023-01-31T05:03:02;95125.69;;;25.55;36.58
71194;BME280;58903;47.210;8.618;2023-01-31T05:05:47;95118.66;;;25.54;37.28
71194;BME280;58903;47.210;8.618;2023-01-31T05:08:15;95115.63;;;25.52;36.91
71194;BME280;58903;47.210;8.618;2023-01-31T05:10:42;95113.13;;;25.54;37.25
71194;BME280;58903;47.210;8.618;2023-01-31T05:13:09;95118.66;;;25.54;36.79
71194;BME280;58903;47.210;8.618;2023-01-31T05:15:36;95124.16;;;25.54;36.59
71194;BME280;58903;47.210;8.618;2023-01-31T05:18:06;95127.19;;;25.56;36.98
71194;BME280;58903;47.210;8.618;2023-01-31T05:20:36;95131.91;;;25.56;36.75
71194;BME280;58903;47.210;8.618;2023-01-31T05:23:16;95134.19;;;25.57;37.27
71194;BME280;58903;47.210;8.618;2023-01-31T05:25:43;95139.72;;;25.57;37.62
71194;BME280;58903;47.210;8.618;2023-01-31T05:28:15;95147.72;;;25.55;37.29
71194;BME280;58903;47.210;8.618;2023-01-31T05:33:53;95154.72;;;25.56;37.42
71194;BME280;58903;47.210;8.618;2023-01-31T05:36:19;95150.22;;;25.53;37.32
71194;BME280;58903;47.210;8.618;2023-01-31T05:38:45;95157.97;;;25.55;37.27
71194;BME280;58903;47.210;8.618;2023-01-31T05:41:21;95157.97;;;25.55;37.23
71194;BME280;58903;47.210;8.618;2023-01-31T05:44:12;95165.75;;;25.56;37.78
71194;BME280;58903;47.210;8.618;2023-01-31T05:46:39;95164.25;;;25.55;37.27
71194;BME280;58903;47.210;8.618;2023-01-31T05:49:05;95154.47;;;25.54;37.36
71194;BME280;58903;47.210;8.618;2023-01-31T05:52:01;95151.72;;;25.54;37.90
71194;BME280;58903;47.210;8.618;2023-01-31T05:54:27;95150.22;;;25.53;37.65
71194;BME280;58903;47.210;8.618;2023-01-31T05:57:06;95160.22;;;25.56;37.50
71194;BME280;58903;47.210;8.618;2023-01-31T05:59:33;95169.00;;;25.60;36.96
71194;BME280;58903;47.210;8.618;2023-01-31T06:02:01;95160.50;;;25.58;38.02
71194;BME280;58903;47.210;8.618;2023-01-31T06:04:40;95157.00;;;25.58;37.58
71194;BME280;58903;47.210;8.618;2023-01-31T06:07:17;95149.47;;;25.58;38.46
71194;BME280;58903;47.210;8.618;2023-01-31T06:09:54;95152.47;;;25.60;38.06
71194;BME280;58903;47.210;8.618;2023-01-31T06:12:20;95145.25;;;25.63;37.41
71194;BME280;58903;47.210;8.618;2023-01-31T06:14:53;95158.53;;;25.64;37.80
71194;BME280;58903;47.210;8.618;2023-01-31T06:17:20;95158.31;;;25.68;38.32
71194;BME280;58903;47.210;8.618;2023-01-31T06:19:49;95159.31;;;25.70;37.63
71194;BME280;58903;47.210;8.618;2023-01-31T06:22:15;95166.31;;;25.71;38.33
71194;BME280;58903;47.210;8.618;2023-01-31T06:24:44;95165.34;;;25.74;38.04
71194;BME280;58903;47.210;8.618;2023-01-31T06:27:10;95171.63;;;25.75;38.40
71194;BME280;58903;47.210;8.618;2023-01-31T06:29:38;95167.34;;;25.74;37.91
71194;BME280;58903;47.210;8.618;2023-01-31T06:32:06;95170.59;;;25.72;37.75
71194;BME280;58903;47.210;8.618;2023-01-31T06:34:32;95169.59;;;25.70;38.13
71194;BME280;58903;47.210;8.618;2023-01-31T06:36:58;95167.59;;;25.70;37.61
71194;BME280;58903;47.210;8.618;2023-01-31T06:42:52;95165.53;;;25.65;37.02
71194;BME280;58903;47.210;8.618;2023-01-31T06:45:28;95170.56;;;25.67;37.01
71194;BME280;58903;47.210;8.618;2023-01-31T06:54:14;95166.75;;;25.59;37.36
71194;BME280;58903;47.210;8.618;2023-01-31T06:56:45;95171.03;;;25.60;37.69
71194;BME280;58903;47.210;8.618;2023-01-31T06:59:11;95165.53;;;25.60;37.85
71194;BME280;58903;47.210;8.618;2023-01-31T07:01:37;95166.50;;;25.57;37.89
71194;BME280;58903;47.210;8.618;2023-01-31T07:04:03;95168.75;;;25.58;37.58
71194;BME280;58903;47.210;8.618;2023-01-31T07:06:31;95179.78;;;25.58;37.10
71194;BME280;58903;47.210;8.618;2023-01-31T07:08:57;95181.03;;;25.57;37.82
71194;BME280;58903;47.210;8.618;2023-01-31T07:11:23;95173.03;;;25.59;37.40
71194;BME280;58903;47.210;8.618;2023-01-31T07:13:49;95178.53;;;25.59;37.73
71194;BME280;58903;47.210;8.618;2023-01-31T07:16:15;95176.75;;;25.56;37.62
71194;BME280;58903;47.210;8.618;2023-01-31T07:18:41;95182.06;;;25.60;37.82
71194;BME280;58903;47.210;8.618;2023-01-31T07:21:10;95184.31;;;25.61;38.12
71194;BME280;58903;47.210;8.618;2023-01-31T07:23:36;95189.06;;;25.61;38.06
71194;BME280;58903;47.210;8.618;2023-01-31T07:26:03;95184.81;;;25.60;37.51
71194;BME280;58903;47.210;8.618;2023-01-31T07:28:32;95189.06;;;25.61;37.60
71194;BME280;58903;47.210;8.618;2023-01-31T07:31:10;95182.78;;;25.60;38.25
71194;BME280;58903;47.210;8.618;2023-01-31T07:33:39;95185.28;;;25.58;37.80
71194;BME280;58903;47.210;8.618;2023-01-31T07:36:07;95177.81;;;25.64;37.88
71194;BME280;58903;47.210;8.618;2023-01-31T07:38:34;95181.31;;;25.65;37.59
71194;BME280;58903;47.210;8.618;2023-01-31T07:41:02;95189.31;;;25.63;37.72
71194;BME280;58903;47.210;8.618;2023-01-31T07:43:38;95187.06;;;25.61;37.60
71194;BME280;58903;47.210;8.618;2023-01-31T07:46:08;95187.31;;;25.58;38.62
71194;BME280;58903;47.210;8.618;2023-01-31T07:48:38;95184.81;;;25.60;38.56
71194;BME280;58903;47.210;8.618;2023-01-31T07:51:10;95189.56;;;25.59;37.85
71194;BME280;58903;47.210;8.618;2023-01-31T07:53:45;95195.06;;;25.59;38.25
71194;BME280;58903;47.210;8.618;2023-01-31T07:56:16;95184.06;;;25.59;38.55
71194;BME280;58903;47.210;8.618;2023-01-31T07:58:44;95191.56;;;25.59;38.77
71194;BME280;58903;47.210;8.618;2023-01-31T08:01:20;95188.28;;;25.60;38.72
71194;BME280;58903;47.210;8.618;2023-01-31T08:04:07;95186.03;;;25.59;37.91
71194;BME280;58903;47.210;8.618;2023-01-31T08:06:38;95179.03;;;25.58;38.16
71194;BME280;58903;47.210;8.618;2023-01-31T08:09:13;95181.28;;;25.59;37.97
71194;BME280;58903;47.210;8.618;2023-01-31T08:12:08;95188.28;;;25.60;38.55
71194;BME280;58903;47.210;8.618;2023-01-31T08:14:44;95194.56;;;25.61;38.58
71194;BME280;58903;47.210;8.618;2023-01-31T08:17:19;95198.59;;;25.60;38.16
71194;BME280;58903;47.210;8.618;2023-01-31T08:26:25;95206.84;;;25.60;38.53
71194;BME280;58903;47.210;8.618;2023-01-31T08:29:16;95204.09;;;25.60;38.70
71194;BME280;58903;47.210;8.618;2023-01-31T08:31:56;95203.34;;;25.59;38.69
71194;BME280;58903;47.210;8.618;2023-01-31T08:34:21;95203.59;;;25.61;38.47
71194;BME280;58903;47.210;8.618;2023-01-31T08:36:54;95205.38;;;25.64;38.42
71194;BME280;58903;47.210;8.618;2023-01-31T08:39:23;95207.84;;;25.62;38.58
71194;BME280;58903;47.210;8.618;2023-01-31T08:41:48;95203.84;;;25.63;38.65
71194;BME280;58903;47.210;8.618;2023-01-31T08:47:06;95204.63;;;25.64;38.62
71194;BME280;58903;47.210;8.618;2023-01-31T08:49:36;95198.34;;;25.63;38.36
71194;BME280;58903;47.210;8.618;2023-01-31T08:52:33;95191.59;;;25.64;37.83
71194;BME280;58903;47.210;8.618;2023-01-31T08:55:28;95195.84;;;25.65;37.80
71194;BME280;58903;47.210;8.618;2023-01-31T08:57:54;95195.09;;;25.65;38.04
71194;BME280;58903;47.210;8.618;2023-01-31T09:00:31;95189.56;;;25.65;38.71
71194;BME280;58903;47.210;8.618;2023-01-31T09:03:16;95187.59;;;25.65;38.37
71194;BME280;58903;47.210;8.618;2023-01-31T09:09:15;95187.59;;;25.65;38.27
71194;BME280;58903;47.210;8.618;2023-01-31T09:11:50;95192.13;;;25.68;38.18
71194;BME280;58903;47.210;8.618;2023-01-31T09:14:17;95184.59;;;25.69;38.26
71194;BME280;58903;47.210;8.618;2023-01-31T09:16:43;95188.88;;;25.70;38.65
71194;BME280;58903;47.210;8.618;2023-01-31T09:19:16;95195.59;;;25.69;38.30
71194;BME280;58903;47.210;8.618;2023-01-31T09:21:51;95196.38;;;25.69;38.52
71194;BME280;58903;47.210;8.618;2023-01-31T09:24:17;95185.13;;;25.73;38.04
71194;BME280;58903;47.210;8.618;2023-01-31T09:26:59;95189.88;;;25.72;38.12
71194;BME280;58903;47.210;8.618;2023-01-31T09:29:36;95194.91;;;25.74;37.96
71194;BME280;58903;47.210;8.618;2023-01-31T09:32:37;95201.16;;;25.74;37.76
71194;BME280;58903;47.210;8.618;2023-01-31T09:35:03;95197.16;;;25.75;37.90
71194;BME280;58903;47.210;8.618;2023-01-31T09:37:29;95186.88;;;25.76;38.03
71194;BME280;58903;47.210;8.618;2023-01-31T09:39:56;95182.13;;;25.76;37.90
71194;BME280;58903;47.210;8.618;2023-01-31T09:42:34;95187.91;;;25.78;37.72
71194;BME280;58903;47.210;8.618;2023-01-31T09:45:06;95184.66;;;25.80;37.97
71194;BME280;58903;47.210;8.618;2023-01-31T09:47:49;95175.66;;;25.79;37.96
71194;BME280;58903;47.210;8.618;2023-01-31T09:50:32;95179.41;;;25.82;37.91
71194;BME280;58903;47.210;8.618;2023-01-31T09:53:19;95191.19;;;25.82;37.60
71194;BME280;58903;47.210;8.618;2023-01-31T10:10:38;95207.91;;;25.73;33.72
71194;BME280;58903;47.210;8.618;2023-01-31T10:15:49;95216.72;;;25.77;32.93
71194;BME280;58903;47.210;8.618;2023-01-31T10:18:33;95215.72;;;25.80;32.87
71194;BME280;58903;47.210;8.618;2023-01-31T10:21:05;95215.72;;;25.80;32.64
71194;BME280;58903;47.210;8.618;2023-01-31T10:26:31;95207.72;;;25.82;32.90
71194;BME280;58903;47.210;8.618;2023-01-31T10:35:38;95200.78;;;25.92;33.77
71194;BME280;58903;47.210;8.618;2023-01-31T10:38:20;95198.75;;;25.93;34.02
71194;BME280;58903;47.210;8.618;2023-01-31T10:40:58;95198.28;;;25.94;34.15
71194;BME280;58903;47.210;8.618;2023-01-31T10:43:39;95202.28;;;25.93;34.23
71194;BME280;58903;47.210;8.618;2023-01-31T10:46:37;95204.06;;;25.96;34.20
71194;BME280;58903;47.210;8.618;2023-01-31T10:49:03;95201.06;;;26.00;34.23
71194;BME280;58903;47.210;8.618;2023-01-31T10:57:26;95179.25;;;26.02;34.64
71194;BME280;58903;47.210;8.618;2023-01-31T10:59:53;95176.75;;;26.04;34.76
71194;BME280;58903;47.210;8.618;2023-01-31T11:02:28;95164.97;;;26.03;34.14
71194;BME280;58903;47.210;8.618;2023-01-31T11:04:57;95161.47;;;26.03;34.54
71194;BME280;58903;47.210;8.618;2023-01-31T11:07:27;95162.22;;;26.03;34.81
71194;BME280;58903;47.210;8.618;2023-01-31T11:09:54;95154.69;;;26.04;34.16
71194;BME280;58903;47.210;8.618;2023-01-31T11:12:38;95156.47;;;26.07;34.39
71194;BME280;58903;47.210;8.618;2023-01-31T11:15:19;95147.19;;;26.04;34.80
71194;BME280;58903;47.210;8.618;2023-01-31T11:17:58;95141.19;;;26.06;34.70
71194;BME280;58903;47.210;8.618;2023-01-31T11:20:31;95137.94;;;26.07;35.28
71194;BME280;58903;47.210;8.618;2023-01-31T11:23:03;95130.41;;;26.08;35.41
71194;BME280;58903;47.210;8.618;2023-01-31T11:25:38;95136.19;;;26.10;34.68
71194;BME280;58903;47.210;8.618;2023-01-31T11:31:39;95139.25;;;26.12;34.37
71194;BME280;58903;47.210;8.618;2023-01-31T11:34:27;95148.00;;;26.10;35.15
71194;BME280;58903;47.210;8.618;2023-01-31T11:37:16;95139.97;;;26.12;35.40
71194;BME280;58903;47.210;8.618;2023-01-31T11:40:03;95130.72;;;26.15;35.20
71194;BME280;58903;47.210;8.618;2023-01-31T11:43:00;95129.44;;;26.16;35.22
71194;BME280;58903;47.210;8.618;2023-01-31T11:45:36;95123.47;;;26.18;35.31
71194;BME280;58903;47.210;8.618;2023-01-31T11:48:13;95114.44;;;26.17;34.57
71194;BME280;58903;47.210;8.618;2023-01-31T11:51:01;95110.94;;;26.23;34.85
71194;BME280;58903;47.210;8.618;2023-01-31T11:53:47;95108.66;;;26.21;34.78
71194;BME280;58903;47.210;8.618;2023-01-31T11:56:20;95099.66;;;26.21;34.90
71194;BME280;58903;47.210;8.618;2023-01-31T11:58:51;95094.16;;;26.21;35.18
71194;BME280;58903;47.210;8.618;2023-01-31T12:01:24;95091.38;;;26.21;35.40
71194;BME280;58903;47.210;8.618;2023-01-31T12:04:03;95093.38;;;26.20;35.02
71194;BME280;58903;47.210;8.618;2023-01-31T12:06:38;95093.38;;;26.20;35.20
71194;BME280;58903;47.210;8.618;2023-01-31T12:12:42;95085.63;;;26.19;35.61
71194;BME280;58903;47.210;8.618;2023-01-31T12:33:14;95092.88;;;26.22;34.83
71194;BME280;58903;47.210;8.618;2023-01-31T12:47:38;95083.38;;;26.23;35.38
71194;BME280;58903;47.210;8.618;2023-01-31T12:53:54;95082.34;;;26.26;35.70
71194;BME280;58903;47.210;8.618;2023-01-31T13:08:38;95092.16;;;26.38;35.48
71194;BME280;58903;47.210;8.618;2023-01-31T13:11:24;95085.63;;;26.41;35.90
71194;BME280;58903;47.210;8.618;2023-01-31T13:13:59;95074.84;;;26.43;35.96
71194;BME280;58903;47.210;8.618;2023-01-31T13:16:38;95073.09;;;26.45;35.91
71194;BME280;58903;47.210;8.618;2023-01-31T13:22:02;95075.13;;;26.50;35.72
71194;BME280;58903;47.210;8.618;2023-01-31T13:24:44;95068.63;;;26.53;35.21
71194;BME280;58903;47.210;8.618;2023-01-31T13:27:39;95077.41;;;26.57;35.00
71194;BME280;58903;47.210;8.618;2023-01-31T13:33:11;95069.84;;;26.58;35.56
71194;BME280;58903;47.210;8.618;2023-01-31T13:35:42;95070.84;;;26.60;35.44
71194;BME280;58903;47.210;8.618;2023-01-31T13:38:19;95059.59;;;26.64;35.72
71194;BME280;58903;47.210;8.618;2023-01-31T13:40:51;95059.06;;;26.65;35.34
71194;BME280;58903;47.210;8.618;2023-01-31T13:43:18;95051.81;;;26.68;35.28
71194;BME280;58903;47.210;8.618;2023-01-31T13:45:54;95048.03;;;26.65;35.12
71194;BME280;58903;47.210;8.618;2023-01-31T13:51:37;95034.50;;;26.62;35.63
71194;BME280;58903;47.210;8.618;2023-01-31T13:54:16;95050.06;;;26.59;35.22
71194;BME280;58903;47.210;8.618;2023-01-31T13:56:54;95071.13;;;26.57;35.29
71194;BME280;58903;47.210;8.618;2023-01-31T13:59:28;95063.09;;;26.53;35.10
71194;BME280;58903;47.210;8.618;2023-01-31T14:02:00;95062.81;;;26.51;35.65
71194;BME280;58903;47.210;8.618;2023-01-31T14:04:37;95068.84;;;26.50;35.01
71194;BME280;58903;47.210;8.618;2023-01-31T14:14:45;95066.84;;;26.45;35.76
71194;BME280;58903;47.210;8.618;2023-01-31T14:22:21;95091.94;;;26.47;35.11
71194;BME280;58903;47.210;8.618;2023-01-31T14:27:36;95103.44;;;26.45;34.93
71194;BME280;58903;47.210;8.618;2023-01-31T14:49:50;95099.44;;;26.41;35.06
71194;BME280;58903;47.210;8.618;2023-01-31T14:55:07;95075.13;;;26.39;35.38
71194;BME280;58903;47.210;8.618;2023-01-31T14:57:48;95080.63;;;26.39;35.64
71194;BME280;58903;47.210;8.618;2023-01-31T15:00:19;95087.66;;;26.46;34.87
71194;BME280;58903;47.210;8.618;2023-01-31T15:11:00;95081.63;;;26.47;35.51
71194;BME280;58903;47.210;8.618;2023-01-31T15:13:34;95067.09;;;26.47;35.40
71194;BME280;58903;47.210;8.618;2023-01-31T15:16:31;95049.03;;;26.46;35.70
71194;BME280;58903;47.210;8.618;2023-01-31T15:19:40;95051.53;;;26.44;35.47
71194;BME280;58903;47.210;8.618;2023-01-31T15:22:20;95044.50;;;26.43;35.00
71194;BME280;58903;47.210;8.618;2023-01-31T15:24:53;95052.31;;;26.44;35.41
71194;BME280;58903;47.210;8.618;2023-01-31T15:27:27;95048.78;;;26.44;35.62
71194;BME280;58903;47.210;8.618;2023-01-31T15:30:20;95041.75;;;26.43;35.23
71194;BME280;58903;47.210;8.618;2023-01-31T15:35:51;95048.53;;;26.42;35.76
71194;BME280;58903;47.210;8.618;2023-01-31T15:38:33;95042.25;;;26.41;35.93
71194;BME280;58903;47.210;8.618;2023-01-31T15:41:19;95037.25;;;26.40;35.80
71194;BME280;58903;47.210;8.618;2023-01-31T15:44:19;95036.75;;;26.41;35.73
71194;BME280;58903;47.210;8.618;2023-01-31T15:47:01;95028.47;;;26.41;35.61
71194;BME280;58903;47.210;8.618;2023-01-31T15:49:41;95033.22;;;26.41;35.42
71194;BME280;58903;47.210;8.618;2023-01-31T15:52:20;95044.25;;;26.41;35.41
71194;BME280;58903;47.210;8.618;2023-01-31T15:55:03;95035.25;;;26.40;35.85
71194;BME280;58903;47.210;8.618;2023-01-31T16:00:04;95044.50;;;26.43;35.64
71194;BME280;58903;47.210;8.618;2023-01-31T16:02:31;95043.03;;;26.42;35.58
71194;BME280;58903;47.210;8.618;2023-01-31T16:05:06;95044.00;;;26.39;36.03
71194;BME280;58903;47.210;8.618;2023-01-31T16:07:35;95050.28;;;26.34;36.08
71194;BME280;58903;47.210;8.618;2023-01-31T16:10:01;95046.28;;;26.29;36.12
71194;BME280;58903;47.210;8.618;2023-01-31T16:12:30;95050.03;;;26.26;36.24
71194;BME280;58903;47.210;8.618;2023-01-31T16:15:05;95069.06;;;26.24;36.09
71194;BME280;58903;47.210;8.618;2023-01-31T16:17:33;95077.84;;;26.23;36.33
71194;BME280;58903;47.210;8.618;2023-01-31T16:20:03;95080.09;;;26.19;36.48
71194;BME280;58903;47.210;8.618;2023-01-31T16:22:32;95081.59;;;26.20;36.16
71194;BME280;58903;47.210;8.618;2023-01-31T16:25:03;95068.06;;;26.16;36.64
71194;BME280;58903;47.210;8.618;2023-01-31T16:27:42;95075.81;;;26.17;36.08
71194;BME280;58903;47.210;8.618;2023-01-31T16:30:15;95092.88;;;26.16;35.99
71194;BME280;58903;47.210;8.618;2023-01-31T16:32:43;95097.38;;;26.13;35.91
71194;BME280;58903;47.210;8.618;2023-01-31T16:35:23;95093.34;;;26.14;35.91
71194;BME280;58903;47.210;8.618;2023-01-31T16:38:03;95098.41;;;26.22;36.20
71194;BME280;58903;47.210;8.618;2023-01-31T16:40:46;95094.41;;;26.23;35.24
71194;BME280;58903;47.210;8.618;2023-01-31T16:45:58;95096.13;;;26.14;35.53
71194;BME280;58903;47.210;8.618;2023-01-31T16:48:26;95110.41;;;26.13;35.61
71194;BME280;58903;47.210;8.618;2023-01-31T16:50:55;95107.41;;;26.11;35.57
71194;BME280;58903;47.210;8.618;2023-01-31T16:53:30;95118.16;;;26.09;35.78
71194;BME280;58903;47.210;8.618;2023-01-31T16:58:54;95109.63;;;26.07;36.22
71194;BME280;58903;47.210;8.618;2023-01-31T17:01:31;95089.56;;;26.06;36.38
71194;BME280;58903;47.210;8.618;2023-01-31T17:04:04;95090.31;;;26.07;36.39
71194;BME280;58903;47.210;8.618;2023-01-31T17:06:36;95087.09;;;26.08;36.94
71194;BME280;58903;47.210;8.618;2023-01-31T17:09:07;95077.28;;;26.07;36.24
71194;BME280;58903;47.210;8.618;2023-01-31T17:11:38;95084.31;;;26.08;36.69
71194;BME280;58903;47.210;8.618;2023-01-31T17:14:12;95066.53;;;26.09;37.33
71194;BME280;58903;47.210;8.618;2023-01-31T17:16:39;95075.81;;;26.12;37.33